| time (UTC) | temp F | wind direction | speed knots | gust knots | rain 1hr in | rain 24hr in | rain mn in | humidity % | barometer mb |
| 20260509031605 | 54 | 0 | 0.0 | 0.0 | 0.00 | 0.00 | 0.00 | 71 | 1010.3 |
| 20260509030053 | 55 | 0 | 0.0 | 0.0 | 0.00 | 0.00 | 0.00 | 67 | 1010.3 |
| 20260509024553 | 56 | 0 | 0.0 | 0.0 | 0.00 | 0.00 | 0.00 | 65 | 1010.4 |
| 20260509023053 | 57 | 0 | 0.0 | 0.0 | 0.00 | 0.00 | 0.00 | 62 | 1010.6 |
| 20260509021555 | 58 | 0 | 0.0 | 0.0 | 0.00 | 0.00 | 0.00 | 58 | 1010.6 |
| 20260509020054 | 58 | 0 | 0.0 | 0.0 | 0.00 | 0.00 | 0.00 | 56 | 1010.7 |
| 20260509014556 | 59 | 0 | 0.0 | 0.0 | 0.00 | 0.00 | 0.00 | 55 | 1010.7 |
| 20260509013053 | 60 | 0 | 0.0 | 0.0 | 0.00 | 0.00 | 0.00 | 53 | 1010.6 |
| 20260509011549 | 61 | 0 | 0.0 | 0.0 | 0.00 | 0.00 | 0.00 | 52 | 1010.6 |
| 20260509010055 | 62 | 0 | 0.0 | 0.0 | 0.00 | 0.00 | 0.00 | 51 | 1010.6 |
| 20260509004550 | 63 | 0 | 0.0 | 0.0 | 0.00 | 0.00 | 0.00 | 50 | 1010.6 |
| 20260509003054 | 65 | 0 | 0.0 | 2.6 | 0.00 | 0.00 | 0.00 | 47 | 1010.8 |
| 20260509001550 | 66 | 197 | 0.9 | 4.3 | 0.00 | 0.00 | 0.00 | 44 | 1011.0 |
| 20260509000056 | 67 | 177 | 2.6 | 6.1 | 0.00 | 0.00 | 0.00 | 42 | 1011.0 |
| 20260508234552 | 68 | 204 | 2.6 | 7.0 | 0.00 | 0.00 | 0.00 | 42 | 1011.4 |
| 20260508233047 | 68 | 190 | 4.3 | 8.7 | 0.00 | 0.00 | 0.00 | 40 | 1011.4 |
| 20260508231554 | 68 | 188 | 3.5 | 8.7 | 0.00 | 0.00 | 0.00 | 40 | 1011.5 |
| 20260508224554 | 70 | 223 | 6.1 | 10.4 | 0.00 | 0.00 | 0.00 | 36 | 1011.6 |
| 20260508223051 | 70 | 219 | 3.5 | 7.8 | 0.00 | 0.00 | 0.00 | 40 | 1011.6 |
| 20260508221554 | 70 | 182 | 4.3 | 11.3 | 0.00 | 0.00 | 0.00 | 38 | 1011.6 |
| 20260508220056 | 70 | 200 | 3.5 | 9.6 | 0.00 | 0.00 | 0.00 | 37 | 1011.4 |
| 20260508214552 | 71 | 225 | 4.3 | 8.7 | 0.00 | 0.00 | 0.00 | 33 | 1011.6 |
| 20260508213051 | 71 | 227 | 4.3 | 8.7 | 0.00 | 0.00 | 0.00 | 34 | 1011.8 |
| 20260508211550 | 70 | 221 | 7.0 | 13.0 | 0.00 | 0.00 | 0.00 | 35 | 1011.5 |
| 20260508210050 | 70 | 164 | 4.3 | 8.7 | 0.00 | 0.00 | 0.00 | 35 | 1011.5 |
| 20260508204551 | 71 | 197 | 3.5 | 10.4 | 0.00 | 0.00 | 0.00 | 33 | 1011.8 |
| 20260508203059 | 71 | 246 | 4.3 | 10.4 | 0.00 | 0.00 | 0.00 | 34 | 1012.1 |
| 20260508201555 | 70 | 194 | 2.6 | 10.4 | 0.00 | 0.00 | 0.00 | 40 | 1012.4 |
| 20260508200059 | 70 | 232 | 3.5 | 9.6 | 0.00 | 0.00 | 0.00 | 37 | 1012.8 |
| 20260508194549 | 70 | 195 | 4.3 | 11.3 | 0.00 | 0.00 | 0.00 | 33 | 1012.9 |
| 20260508193057 | 70 | 148 | 6.1 | 9.6 | 0.00 | 0.00 | 0.00 | 38 | 1012.8 |
| 20260508191556 | 70 | 123 | 5.2 | 13.0 | 0.00 | 0.00 | 0.00 | 38 | 1012.8 |
| 20260508190052 | 69 | 180 | 4.3 | 10.4 | 0.00 | 0.00 | 0.00 | 43 | 1013.0 |
| 20260508184551 | 69 | 205 | 5.2 | 11.3 | 0.00 | 0.00 | 0.00 | 37 | 1013.2 |
| 20260508183050 | 69 | 180 | 4.3 | 12.2 | 0.00 | 0.00 | 0.00 | 43 | 1013.4 |
| 20260508181552 | 69 | 169 | 7.0 | 13.9 | 0.00 | 0.00 | 0.00 | 43 | 1013.6 |
| 20260508180052 | 68 | 175 | 4.3 | 11.3 | 0.00 | 0.00 | 0.00 | 44 | 1013.9 |
| 20260508174550 | 68 | 188 | 5.2 | 9.6 | 0.00 | 0.00 | 0.00 | 39 | 1014.4 |
| 20260508173053 | 68 | 143 | 2.6 | 9.6 | 0.00 | 0.00 | 0.00 | 47 | 1014.5 |
| 20260508171553 | 67 | 126 | 3.5 | 7.8 | 0.00 | 0.00 | 0.00 | 43 | 1015.1 |
| 20260508170059 | 67 | 220 | 4.3 | 8.7 | 0.00 | 0.00 | 0.00 | 43 | 1015.3 |
| 20260508164552 | 67 | 138 | 2.6 | 7.0 | 0.00 | 0.00 | 0.00 | 47 | 1015.5 |
| 20260508163054 | 66 | 95 | 2.6 | 7.8 | 0.00 | 0.00 | 0.00 | 46 | 1015.7 |
| 20260508161554 | 66 | 143 | 3.5 | 7.0 | 0.00 | 0.00 | 0.00 | 45 | 1016.0 |
| 20260508160055 | 65 | 129 | 3.5 | 10.4 | 0.00 | 0.00 | 0.00 | 52 | 1016.2 |
| 20260508154554 | 64 | 173 | 2.6 | 8.7 | 0.00 | 0.00 | 0.00 | 48 | 1016.4 |
| 20260508153052 | 63 | 159 | 4.3 | 9.6 | 0.00 | 0.00 | 0.00 | 50 | 1016.5 |
| 20260508151558 | 63 | 190 | 4.3 | 7.8 | 0.00 | 0.00 | 0.00 | 48 | 1016.7 |
| 20260508150056 | 61 | 197 | 3.5 | 7.8 | 0.00 | 0.00 | 0.00 | 55 | 1016.8 |
| 20260508144554 | 61 | 206 | 2.6 | 6.1 | 0.00 | 0.00 | 0.00 | 56 | 1017.0 |
| 20260508143053 | 60 | 159 | 3.5 | 8.7 | 0.00 | 0.00 | 0.00 | 58 | 1017.0 |
| 20260508141557 | 59 | 150 | 3.5 | 7.8 | 0.00 | 0.00 | 0.00 | 62 | 1017.3 |
| 20260508140050 | 58 | 192 | 4.3 | 7.0 | 0.00 | 0.00 | 0.00 | 62 | 1017.3 |
| 20260508134553 | 57 | 142 | 1.7 | 5.2 | 0.00 | 0.00 | 0.00 | 73 | 1017.2 |
| 20260508133051 | 54 | 168 | 0.9 | 4.3 | 0.00 | 0.00 | 0.00 | 76 | 1017.2 |
| 20260508131600 | 52 | 166 | 0.9 | 4.3 | 0.00 | 0.00 | 0.00 | 78 | 1017.2 |
| 20260508130109 | 51 | 169 | 0.9 | 4.3 | 0.00 | 0.00 | 0.00 | 80 | 1017.1 |
| 20260508124551 | 49 | 148 | 0.0 | 1.7 | 0.00 | 0.00 | 0.00 | 87 | 1017.0 |
| 20260508123049 | 46 | 123 | 0.9 | 2.6 | 0.00 | 0.00 | 0.00 | 93 | 1017.0 |
| 20260508121602 | 43 | 119 | 0.9 | 2.6 | 0.00 | 0.00 | 0.00 | 96 | 1016.9 |
| 20260508120054 | 40 | 0 | 0.0 | 0.0 | 0.00 | 0.00 | 0.00 | 96 | 1016.7 |
| 20260508114556 | 37 | 0 | 0.0 | 0.0 | 0.00 | 0.00 | 0.00 | 96 | 1016.6 |
| 20260508113052 | 36 | 0 | 0.0 | 0.0 | 0.00 | 0.00 | 0.00 | 95 | 1016.6 |
| 20260508111554 | 36 | 0 | 0.0 | 0.0 | 0.00 | 0.00 | 0.00 | 95 | 1016.5 |
| 20260508110057 | 35 | 0 | 0.0 | 0.0 | 0.00 | 0.00 | 0.00 | 95 | 1016.4 |
| 20260508104621 | 35 | 0 | 0.0 | 0.0 | 0.00 | 0.00 | 0.00 | 95 | 1016.3 |
| 20260508103058 | 35 | 0 | 0.0 | 0.0 | 0.00 | 0.00 | 0.00 | 95 | 1016.2 |
| 20260508101556 | 35 | 0 | 0.0 | 0.0 | 0.00 | 0.00 | 0.00 | 95 | 1016.1 |
| 20260508100053 | 35 | 0 | 0.0 | 0.0 | 0.00 | 0.00 | 0.00 | 95 | 1015.9 |
| 20260508094555 | 36 | 0 | 0.0 | 0.0 | 0.00 | 0.00 | 0.00 | 94 | 1016.0 |
| 20260508093053 | 36 | 0 | 0.0 | 0.0 | 0.00 | 0.00 | 0.00 | 94 | 1015.9 |
| 20260508091609 | 36 | 0 | 0.0 | 0.0 | 0.00 | 0.00 | 0.00 | 94 | 1015.9 |
| 20260508090106 | 36 | 0 | 0.0 | 0.0 | 0.00 | 0.00 | 0.00 | 94 | 1015.9 |
| 20260508084555 | 36 | 0 | 0.0 | 0.0 | 0.00 | 0.00 | 0.00 | 94 | 1016.0 |
| 20260508083110 | 37 | 0 | 0.0 | 0.0 | 0.00 | 0.00 | 0.00 | 94 | 1016.0 |
| 20260508081559 | 37 | 0 | 0.0 | 0.0 | 0.00 | 0.00 | 0.00 | 94 | 1016.0 |
| 20260508080057 | 37 | 0 | 0.0 | 0.0 | 0.00 | 0.00 | 0.00 | 94 | 1016.1 |
| 20260508074552 | 37 | 0 | 0.0 | 0.0 | 0.00 | 0.00 | 0.00 | 93 | 1016.0 |
| 20260508073050 | 37 | 0 | 0.0 | 0.0 | 0.00 | 0.00 | 0.00 | 93 | 1016.0 |
| 20260508071602 | 38 | 0 | 0.0 | 0.0 | 0.00 | 0.00 | 0.00 | 93 | 1016.2 |
| 20260508070138 | 38 | 0 | 0.0 | 0.0 | 0.00 | 0.00 | 0.00 | 92 | 1016.3 |
| 20260508064613 | 38 | 0 | 0.0 | 0.0 | 0.00 | 0.00 | 0.00 | 92 | 1016.4 |
| 20260508063050 | 38 | 0 | 0.0 | 0.0 | 0.00 | 0.00 | 0.00 | 92 | 1016.3 |
| 20260508061603 | 38 | 0 | 0.0 | 0.0 | 0.00 | 0.00 | 0.00 | 91 | 1016.2 |
| 20260508060055 | 39 | 0 | 0.0 | 0.0 | 0.00 | 0.00 | 0.00 | 91 | 1016.1 |
| 20260508054554 | 39 | 0 | 0.0 | 0.0 | 0.00 | 0.00 | 0.00 | 91 | 1016.3 |
| 20260508053104 | 39 | 0 | 0.0 | 0.0 | 0.00 | 0.00 | 0.00 | 91 | 1016.3 |
| 20260508051554 | 40 | 0 | 0.0 | 0.0 | 0.00 | 0.00 | 0.00 | 90 | 1016.3 |
| 20260508050100 | 40 | 0 | 0.0 | 0.0 | 0.00 | 0.00 | 0.00 | 90 | 1016.4 |
| 20260508044555 | 40 | 0 | 0.0 | 0.0 | 0.00 | 0.00 | 0.00 | 89 | 1016.5 |
| 20260508043103 | 41 | 0 | 0.0 | 0.0 | 0.00 | 0.00 | 0.00 | 88 | 1016.3 |
| 20260508041554 | 41 | 0 | 0.0 | 0.0 | 0.00 | 0.00 | 0.00 | 87 | 1016.0 |
| 20260508040101 | 42 | 0 | 0.0 | 0.0 | 0.00 | 0.00 | 0.00 | 86 | 1015.8 |
| 20260508034555 | 42 | 0 | 0.0 | 0.0 | 0.00 | 0.00 | 0.00 | 85 | 1015.9 |
| 20260508033051 | 43 | 0 | 0.0 | 0.0 | 0.00 | 0.00 | 0.00 | 83 | 1015.9 |